Date,TemperatureHighF,TemperatureAvgF,TemperatureLowF,DewpointHighF,DewpointAvgF,DewpointLowF,HumidityHigh,HumidityAvg,HumidityLow,PressureMaxIn,PressureMinIn,WindSpeedMaxMPH,WindSpeedAvgMPH,GustSpeedMaxMPH,PrecipitationSumIn
2014-1-1,16.3,15.1,13.0,13.4,11.2,9.1,88,84,80,30.27,30.20,14,6,21,0.00
2014-1-2,14.1,9.7,-0.7,9.3,4.4,-5.7,84,79,73,30.54,30.25,13,6,18,0.00
2014-1-3,24.1,10.6,-4.0,16.9,4.2,-8.4,83,75,65,30.52,29.86,19,6,31,0.00
2014-1-4,33.9,25.7,18.3,26.1,19.3,15.9,90,77,66,30.08,29.84,14,7,24,0.02
2014-1-5,18.3,8.8,-7.1,15.9,4.5,-14.3,90,82,70,30.40,30.05,24,12,34,0.05
2014-1-6,-4.4,-8.5,-13.1,-13.2,-16.3,-20.4,72,68,62,30.50,30.40,21,9,29,0.00
2014-1-7,12.8,1.7,-8.5,3.9,-5.0,-14.2,79,73,66,30.44,30.22,9,3,14,0.00
2014-1-8,14.7,9.1,2.3,5.8,2.2,-2.5,82,73,63,30.55,30.31,6,2,9,0.00
2014-1-9,28.8,18.6,9.8,26.5,14.2,3.2,92,83,71,30.53,30.13,8,4,14,0.00
2014-1-10,40.4,34.7,28.8,39.1,33.2,26.8,95,94,92,30.13,29.52,12,6,18,0.60
2014-1-11,40.4,34.4,29.7,36.1,30.4,25.9,95,86,69,29.91,29.51,16,9,24,0.60
2014-1-12,50.8,37.9,26.6,38.3,31.3,23.8,91,78,59,29.90,29.55,14,6,26,0.00
2014-1-13,42.9,36.1,29.7,35.5,30.2,26.1,88,79,65,29.85,29.55,17,5,24,0.00
2014-1-14,36.4,30.0,20.9,33.2,23.3,13.1,89,76,61,30.09,29.66,26,13,40,0.01
2014-1-15,26.1,18.6,12.5,16.9,11.4,6.9,79,73,65,30.24,29.84,19,8,26,0.01
2014-1-16,39.7,28.7,10.7,31.6,22.8,5.7,89,79,59,29.90,29.62,23,11,32,0.02
2014-1-17,14.6,10.8,6.1,7.2,4.5,-0.1,81,75,71,30.11,29.91,18,9,25,0.02
2014-1-18,31.8,20.7,8.4,28.4,16.3,3.8,95,83,69,30.06,29.61,14,5,20,0.05
2014-1-19,46.0,31.2,13.6,32.9,23.2,9.7,92,73,58,30.02,29.64,17,8,24,0.05
2014-1-20,40.9,33.7,15.6,33.0,28.5,12.9,92,81,71,30.16,29.73,20,5,29,0.05
2014-1-21,15.3,7.1,1.6,12.6,0.9,-4.2,89,75,66,30.48,30.16,14,5,25,0.05
2014-1-22,20.4,12.7,0.4,13.1,5.8,-7.1,78,73,65,30.46,30.06,23,10,33,0.00
2014-1-23,6.2,0.1,-5.0,-4.1,-8.0,-12.3,72,68,61,30.79,30.46,18,10,25,0.00